sensor_id;sensor_type;location;lat;lon;timestamp;P1;durP1;ratioP1;P2;durP2;ratioP2
72369;SDS011;60343;-32.030;115.880;2022-08-19T00:01:54;4.60;;;1.10;;
72369;SDS011;60343;-32.030;115.880;2022-08-19T00:04:29;6.22;;;1.00;;
72369;SDS011;60343;-32.030;115.880;2022-08-19T00:06:58;3.67;;;0.93;;
72369;SDS011;60343;-32.030;115.880;2022-08-19T00:09:26;5.05;;;0.82;;
72369;SDS011;60343;-32.030;115.880;2022-08-19T00:11:54;3.17;;;0.90;;
72369;SDS011;60343;-32.030;115.880;2022-08-19T00:14:23;2.42;;;0.80;;
72369;SDS011;60343;-32.030;115.880;2022-08-19T00:16:52;6.47;;;1.08;;
72369;SDS011;60343;-32.030;115.880;2022-08-19T00:19:26;2.88;;;0.80;;
72369;SDS011;60343;-32.030;115.880;2022-08-19T00:21:53;6.95;;;1.23;;
72369;SDS011;60343;-32.030;115.880;2022-08-19T00:24:21;3.55;;;0.80;;
72369;SDS011;60343;-32.030;115.880;2022-08-19T00:26:49;4.25;;;1.00;;
72369;SDS011;60343;-32.030;115.880;2022-08-19T00:29:18;2.45;;;0.73;;
72369;SDS011;60343;-32.030;115.880;2022-08-19T00:31:50;2.83;;;0.70;;
72369;SDS011;60343;-32.030;115.880;2022-08-19T00:34:18;4.18;;;0.90;;
72369;SDS011;60343;-32.030;115.880;2022-08-19T00:36:51;2.63;;;0.85;;
72369;SDS011;60343;-32.030;115.880;2022-08-19T00:39:19;2.65;;;0.68;;
72369;SDS011;60343;-32.030;115.880;2022-08-19T00:41:47;4.78;;;0.90;;
72369;SDS011;60343;-32.030;115.880;2022-08-19T00:44:17;4.45;;;0.90;;
72369;SDS011;60343;-32.030;115.880;2022-08-19T00:46:46;4.72;;;1.10;;
72369;SDS011;60343;-32.030;115.880;2022-08-19T00:49:16;3.65;;;0.90;;
72369;SDS011;60343;-32.030;115.880;2022-08-19T00:51:53;5.13;;;1.10;;
72369;SDS011;60343;-32.030;115.880;2022-08-19T00:54:26;3.05;;;0.90;;
72369;SDS011;60343;-32.030;115.880;2022-08-19T00:59:44;4.70;;;1.20;;
72369;SDS011;60343;-32.030;115.880;2022-08-19T01:02:14;4.22;;;1.10;;
72369;SDS011;60343;-32.030;115.880;2022-08-19T01:04:42;3.97;;;1.10;;
72369;SDS011;60343;-32.030;115.880;2022-08-19T01:07:15;5.43;;;1.13;;
72369;SDS011;60343;-32.030;115.880;2022-08-19T01:09:43;4.78;;;1.27;;
72369;SDS011;60343;-32.030;115.880;2022-08-19T01:12:11;6.97;;;1.23;;
72369;SDS011;60343;-32.030;115.880;2022-08-19T01:14:39;3.80;;;1.00;;
72369;SDS011;60343;-32.030;115.880;2022-08-19T01:17:08;5.45;;;1.65;;
72369;SDS011;60343;-32.030;115.880;2022-08-19T01:19:37;3.42;;;1.00;;
72369;SDS011;60343;-32.030;115.880;2022-08-19T01:22:08;4.90;;;1.20;;
72369;SDS011;60343;-32.030;115.880;2022-08-19T01:24:51;5.75;;;0.90;;
72369;SDS011;60343;-32.030;115.880;2022-08-19T01:27:19;6.20;;;1.05;;
72369;SDS011;60343;-32.030;115.880;2022-08-19T01:29:46;2.70;;;0.80;;
72369;SDS011;60343;-32.030;115.880;2022-08-19T01:32:14;6.32;;;1.02;;
72369;SDS011;60343;-32.030;115.880;2022-08-19T01:34:43;5.03;;;0.90;;
72369;SDS011;60343;-32.030;115.880;2022-08-19T01:37:11;4.25;;;1.10;;
72369;SDS011;60343;-32.030;115.880;2022-08-19T01:39:40;5.97;;;0.90;;
72369;SDS011;60343;-32.030;115.880;2022-08-19T01:42:13;6.97;;;0.90;;
72369;SDS011;60343;-32.030;115.880;2022-08-19T01:44:41;3.05;;;0.90;;
72369;SDS011;60343;-32.030;115.880;2022-08-19T01:47:09;3.65;;;0.80;;
72369;SDS011;60343;-32.030;115.880;2022-08-19T01:49:36;7.07;;;0.90;;
72369;SDS011;60343;-32.030;115.880;2022-08-19T01:52:04;4.85;;;1.17;;
72369;SDS011;60343;-32.030;115.880;2022-08-19T01:54:32;5.60;;;1.13;;
72369;SDS011;60343;-32.030;115.880;2022-08-19T01:57:00;2.50;;;0.77;;
72369;SDS011;60343;-32.030;115.880;2022-08-19T01:59:36;2.92;;;0.70;;
72369;SDS011;60343;-32.030;115.880;2022-08-19T02:02:05;3.40;;;0.90;;
72369;SDS011;60343;-32.030;115.880;2022-08-19T02:04:33;7.45;;;1.00;;
72369;SDS011;60343;-32.030;115.880;2022-08-19T02:07:01;3.20;;;0.80;;
72369;SDS011;60343;-32.030;115.880;2022-08-19T02:09:29;4.22;;;0.93;;
72369;SDS011;60343;-32.030;115.880;2022-08-19T02:11:58;3.65;;;0.60;;
72369;SDS011;60343;-32.030;115.880;2022-08-19T02:14:26;2.80;;;0.50;;
72369;SDS011;60343;-32.030;115.880;2022-08-19T02:17:00;3.28;;;0.65;;
72369;SDS011;60343;-32.030;115.880;2022-08-19T02:19:28;1.80;;;0.45;;
72369;SDS011;60343;-32.030;115.880;2022-08-19T02:21:55;2.47;;;0.45;;
72369;SDS011;60343;-32.030;115.880;2022-08-19T02:24:23;3.47;;;0.40;;
72369;SDS011;60343;-32.030;115.880;2022-08-19T02:26:51;5.05;;;0.85;;
72369;SDS011;60343;-32.030;115.880;2022-08-19T02:29:19;5.03;;;1.05;;
72369;SDS011;60343;-32.030;115.880;2022-08-19T02:31:47;3.85;;;0.50;;
72369;SDS011;60343;-32.030;115.880;2022-08-19T02:34:20;4.90;;;0.60;;
72369;SDS011;60343;-32.030;115.880;2022-08-19T02:36:47;3.08;;;0.57;;
72369;SDS011;60343;-32.030;115.880;2022-08-19T02:39:15;4.30;;;0.90;;
72369;SDS011;60343;-32.030;115.880;2022-08-19T02:41:43;1.45;;;0.30;;
72369;SDS011;60343;-32.030;115.880;2022-08-19T02:44:11;3.95;;;0.40;;
72369;SDS011;60343;-32.030;115.880;2022-08-19T02:46:38;2.53;;;0.55;;
72369;SDS011;60343;-32.030;115.880;2022-08-19T02:49:07;2.30;;;0.57;;
72369;SDS011;60343;-32.030;115.880;2022-08-19T02:51:40;2.78;;;0.52;;
72369;SDS011;60343;-32.030;115.880;2022-08-19T02:54:09;2.13;;;0.40;;
72369;SDS011;60343;-32.030;115.880;2022-08-19T02:56:38;4.28;;;0.52;;
72369;SDS011;60343;-32.030;115.880;2022-08-19T02:59:07;6.82;;;0.50;;
72369;SDS011;60343;-32.030;115.880;2022-08-19T03:01:34;2.67;;;0.63;;
72369;SDS011;60343;-32.030;115.880;2022-08-19T03:04:03;2.47;;;0.45;;
72369;SDS011;60343;-32.030;115.880;2022-08-19T03:06:33;5.18;;;0.57;;
72369;SDS011;60343;-32.030;115.880;2022-08-19T03:09:09;4.25;;;0.60;;
72369;SDS011;60343;-32.030;115.880;2022-08-19T03:11:38;3.67;;;0.50;;
72369;SDS011;60343;-32.030;115.880;2022-08-19T03:14:06;3.03;;;0.40;;
72369;SDS011;60343;-32.030;115.880;2022-08-19T03:16:39;3.50;;;0.60;;
72369;SDS011;60343;-32.030;115.880;2022-08-19T03:19:08;3.08;;;0.60;;
72369;SDS011;60343;-32.030;115.880;2022-08-19T03:21:42;1.23;;;0.30;;
72369;SDS011;60343;-32.030;115.880;2022-08-19T03:24:11;1.85;;;0.30;;
72369;SDS011;60343;-32.030;115.880;2022-08-19T03:26:39;3.50;;;0.50;;
72369;SDS011;60343;-32.030;115.880;2022-08-19T03:29:08;4.45;;;0.35;;
72369;SDS011;60343;-32.030;115.880;2022-08-19T03:31:36;0.88;;;0.25;;
72369;SDS011;60343;-32.030;115.880;2022-08-19T03:34:05;2.45;;;0.47;;
72369;SDS011;60343;-32.030;115.880;2022-08-19T03:36:33;3.58;;;0.30;;
72369;SDS011;60343;-32.030;115.880;2022-08-19T03:39:06;2.63;;;0.30;;
72369;SDS011;60343;-32.030;115.880;2022-08-19T03:41:36;1.98;;;0.30;;
72369;SDS011;60343;-32.030;115.880;2022-08-19T03:44:05;1.33;;;0.20;;
72369;SDS011;60343;-32.030;115.880;2022-08-19T03:46:33;0.70;;;0.20;;
72369;SDS011;60343;-32.030;115.880;2022-08-19T03:49:02;1.65;;;0.30;;
72369;SDS011;60343;-32.030;115.880;2022-08-19T03:51:31;2.40;;;0.57;;
72369;SDS011;60343;-32.030;115.880;2022-08-19T03:54:00;2.65;;;0.47;;
72369;SDS011;60343;-32.030;115.880;2022-08-19T03:56:35;1.85;;;0.38;;
72369;SDS011;60343;-32.030;115.880;2022-08-19T03:59:04;1.90;;;0.38;;
72369;SDS011;60343;-32.030;115.880;2022-08-19T04:01:34;1.38;;;0.22;;
72369;SDS011;60343;-32.030;115.880;2022-08-19T04:04:02;2.25;;;0.35;;
72369;SDS011;60343;-32.030;115.880;2022-08-19T04:06:30;1.63;;;0.32;;
72369;SDS011;60343;-32.030;115.880;2022-08-19T04:09:00;2.58;;;0.30;;
72369;SDS011;60343;-32.030;115.880;2022-08-19T04:11:36;1.20;;;0.30;;
72369;SDS011;60343;-32.030;115.880;2022-08-19T04:14:05;1.00;;;0.20;;
72369;SDS011;60343;-32.030;115.880;2022-08-19T04:16:34;1.80;;;0.38;;
72369;SDS011;60343;-32.030;115.880;2022-08-19T04:19:03;1.67;;;0.25;;
72369;SDS011;60343;-32.030;115.880;2022-08-19T04:21:32;2.03;;;0.20;;
72369;SDS011;60343;-32.030;115.880;2022-08-19T04:24:00;1.10;;;0.17;;
72369;SDS011;60343;-32.030;115.880;2022-08-19T04:26:35;0.70;;;0.15;;
72369;SDS011;60343;-32.030;115.880;2022-08-19T04:29:04;2.53;;;0.30;;
72369;SDS011;60343;-32.030;115.880;2022-08-19T04:34:27;0.98;;;0.15;;
72369;SDS011;60343;-32.030;115.880;2022-08-19T04:36:56;0.95;;;0.10;;
72369;SDS011;60343;-32.030;115.880;2022-08-19T04:39:30;0.82;;;0.10;;
72369;SDS011;60343;-32.030;115.880;2022-08-19T04:41:58;0.77;;;0.17;;
72369;SDS011;60343;-32.030;115.880;2022-08-19T04:44:25;0.50;;;0.10;;
72369;SDS011;60343;-32.030;115.880;2022-08-19T04:46:56;0.57;;;0.10;;
72369;SDS011;60343;-32.030;115.880;2022-08-19T04:49:24;2.10;;;0.20;;
72369;SDS011;60343;-32.030;115.880;2022-08-19T04:51:52;1.38;;;0.20;;
72369;SDS011;60343;-32.030;115.880;2022-08-19T04:54:21;2.05;;;0.20;;
72369;SDS011;60343;-32.030;115.880;2022-08-19T04:56:55;1.58;;;0.20;;
72369;SDS011;60343;-32.030;115.880;2022-08-19T04:59:25;2.28;;;0.20;;
72369;SDS011;60343;-32.030;115.880;2022-08-19T05:01:53;0.88;;;0.15;;
72369;SDS011;60343;-32.030;115.880;2022-08-19T05:04:20;3.05;;;0.20;;
72369;SDS011;60343;-32.030;115.880;2022-08-19T05:06:48;0.50;;;0.10;;
72369;SDS011;60343;-32.030;115.880;2022-08-19T05:09:16;1.52;;;0.20;;
72369;SDS011;60343;-32.030;115.880;2022-08-19T05:11:43;3.90;;;0.20;;
72369;SDS011;60343;-32.030;115.880;2022-08-19T05:14:17;2.38;;;0.10;;
72369;SDS011;60343;-32.030;115.880;2022-08-19T05:16:44;2.20;;;0.22;;
72369;SDS011;60343;-32.030;115.880;2022-08-19T05:19:12;1.85;;;0.22;;
72369;SDS011;60343;-32.030;115.880;2022-08-19T05:21:40;1.70;;;0.00;;
72369;SDS011;60343;-32.030;115.880;2022-08-19T05:24:08;1.30;;;0.10;;
72369;SDS011;60343;-32.030;115.880;2022-08-19T05:26:36;1.98;;;0.20;;
72369;SDS011;60343;-32.030;115.880;2022-08-19T05:29:05;1.05;;;0.10;;
72369;SDS011;60343;-32.030;115.880;2022-08-19T05:31:39;1.55;;;0.20;;
72369;SDS011;60343;-32.030;115.880;2022-08-19T05:34:06;2.38;;;0.20;;
72369;SDS011;60343;-32.030;115.880;2022-08-19T05:36:38;2.05;;;0.00;;
72369;SDS011;60343;-32.030;115.880;2022-08-19T05:39:07;3.13;;;0.20;;
72369;SDS011;60343;-32.030;115.880;2022-08-19T05:41:41;0.73;;;0.08;;
72369;SDS011;60343;-32.030;115.880;2022-08-19T05:44:09;1.55;;;0.30;;
72369;SDS011;60343;-32.030;115.880;2022-08-19T05:46:42;1.42;;;0.10;;
72369;SDS011;60343;-32.030;115.880;2022-08-19T05:49:10;1.45;;;0.20;;
72369;SDS011;60343;-32.030;115.880;2022-08-19T05:51:38;0.98;;;0.20;;
72369;SDS011;60343;-32.030;115.880;2022-08-19T05:54:06;1.30;;;0.20;;
72369;SDS011;60343;-32.030;115.880;2022-08-19T05:56:34;2.15;;;0.10;;
72369;SDS011;60343;-32.030;115.880;2022-08-19T05:59:02;2.83;;;0.30;;
72369;SDS011;60343;-32.030;115.880;2022-08-19T06:01:32;1.80;;;0.10;;
72369;SDS011;60343;-32.030;115.880;2022-08-19T06:04:06;1.40;;;0.20;;
72369;SDS011;60343;-32.030;115.880;2022-08-19T06:06:34;0.80;;;0.10;;
72369;SDS011;60343;-32.030;115.880;2022-08-19T06:09:03;1.25;;;0.10;;
72369;SDS011;60343;-32.030;115.880;2022-08-19T06:11:34;2.25;;;0.30;;
72369;SDS011;60343;-32.030;115.880;2022-08-19T06:14:04;0.82;;;0.10;;
72369;SDS011;60343;-32.030;115.880;2022-08-19T06:16:33;1.02;;;0.20;;
72369;SDS011;60343;-32.030;115.880;2022-08-19T06:19:07;1.70;;;0.40;;
72369;SDS011;60343;-32.030;115.880;2022-08-19T06:21:39;1.45;;;0.10;;
72369;SDS011;60343;-32.030;115.880;2022-08-19T06:24:09;0.98;;;0.08;;
72369;SDS011;60343;-32.030;115.880;2022-08-19T06:26:38;1.92;;;0.10;;
72369;SDS011;60343;-32.030;115.880;2022-08-19T06:29:08;2.70;;;0.30;;
72369;SDS011;60343;-32.030;115.880;2022-08-19T06:31:40;1.25;;;0.20;;
72369;SDS011;60343;-32.030;115.880;2022-08-19T06:34:13;1.65;;;0.20;;
72369;SDS011;60343;-32.030;115.880;2022-08-19T06:36:42;2.90;;;0.20;;
72369;SDS011;60343;-32.030;115.880;2022-08-19T06:39:13;2.33;;;0.20;;
72369;SDS011;60343;-32.030;115.880;2022-08-19T06:41:44;3.88;;;0.30;;
72369;SDS011;60343;-32.030;115.880;2022-08-19T06:44:13;0.50;;;0.10;;
72369;SDS011;60343;-32.030;115.880;2022-08-19T06:46:41;2.38;;;0.20;;
72369;SDS011;60343;-32.030;115.880;2022-08-19T06:49:14;1.25;;;0.10;;
72369;SDS011;60343;-32.030;115.880;2022-08-19T06:51:43;1.73;;;0.17;;
72369;SDS011;60343;-32.030;115.880;2022-08-19T06:54:12;1.15;;;0.30;;
72369;SDS011;60343;-32.030;115.880;2022-08-19T06:56:41;1.08;;;0.20;;
72369;SDS011;60343;-32.030;115.880;2022-08-19T06:59:10;1.27;;;0.13;;
72369;SDS011;60343;-32.030;115.880;2022-08-19T07:01:41;1.67;;;0.20;;
72369;SDS011;60343;-32.030;115.880;2022-08-19T07:04:17;1.50;;;0.25;;
72369;SDS011;60343;-32.030;115.880;2022-08-19T07:06:47;0.93;;;0.10;;
72369;SDS011;60343;-32.030;115.880;2022-08-19T07:09:15;2.28;;;0.10;;
72369;SDS011;60343;-32.030;115.880;2022-08-19T07:11:45;2.05;;;0.20;;
72369;SDS011;60343;-32.030;115.880;2022-08-19T07:14:14;0.88;;;0.20;;
72369;SDS011;60343;-32.030;115.880;2022-08-19T07:16:43;1.27;;;0.17;;
72369;SDS011;60343;-32.030;115.880;2022-08-19T07:19:17;0.85;;;0.10;;
72369;SDS011;60343;-32.030;115.880;2022-08-19T07:21:45;1.45;;;0.10;;
72369;SDS011;60343;-32.030;115.880;2022-08-19T07:24:14;1.33;;;0.20;;
72369;SDS011;60343;-32.030;115.880;2022-08-19T07:26:43;1.23;;;0.20;;
72369;SDS011;60343;-32.030;115.880;2022-08-19T07:29:11;1.15;;;0.10;;
72369;SDS011;60343;-32.030;115.880;2022-08-19T07:31:39;0.63;;;0.13;;
72369;SDS011;60343;-32.030;115.880;2022-08-19T07:34:07;1.13;;;0.20;;
72369;SDS011;60343;-32.030;115.880;2022-08-19T07:36:42;0.32;;;0.10;;
72369;SDS011;60343;-32.030;115.880;2022-08-19T07:39:14;1.85;;;0.22;;
72369;SDS011;60343;-32.030;115.880;2022-08-19T07:41:43;0.77;;;0.13;;
72369;SDS011;60343;-32.030;115.880;2022-08-19T07:44:11;1.48;;;0.20;;
72369;SDS011;60343;-32.030;115.880;2022-08-19T07:46:40;0.47;;;0.10;;
72369;SDS011;60343;-32.030;115.880;2022-08-19T07:49:12;0.88;;;0.17;;
72369;SDS011;60343;-32.030;115.880;2022-08-19T07:51:47;1.42;;;0.10;;
72369;SDS011;60343;-32.030;115.880;2022-08-19T07:54:16;1.45;;;0.10;;
72369;SDS011;60343;-32.030;115.880;2022-08-19T07:56:45;1.60;;;0.17;;
72369;SDS011;60343;-32.030;115.880;2022-08-19T07:59:13;1.33;;;0.20;;
72369;SDS011;60343;-32.030;115.880;2022-08-19T08:01:40;1.35;;;0.28;;
72369;SDS011;60343;-32.030;115.880;2022-08-19T08:04:08;2.15;;;0.13;;
72369;SDS011;60343;-32.030;115.880;2022-08-19T08:06:36;1.60;;;0.13;;
72369;SDS011;60343;-32.030;115.880;2022-08-19T08:09:10;0.25;;;0.10;;
72369;SDS011;60343;-32.030;115.880;2022-08-19T08:11:38;1.23;;;0.20;;
72369;SDS011;60343;-32.030;115.880;2022-08-19T08:14:06;0.85;;;0.20;;
72369;SDS011;60343;-32.030;115.880;2022-08-19T08:16:35;2.58;;;0.30;;
72369;SDS011;60343;-32.030;115.880;2022-08-19T08:19:04;1.13;;;0.20;;
72369;SDS011;60343;-32.030;115.880;2022-08-19T08:21:32;0.98;;;0.10;;
72369;SDS011;60343;-32.030;115.880;2022-08-19T08:24:00;1.42;;;0.20;;
72369;SDS011;60343;-32.030;115.880;2022-08-19T08:26:33;1.98;;;0.20;;
72369;SDS011;60343;-32.030;115.880;2022-08-19T08:29:01;1.08;;;0.17;;
72369;SDS011;60343;-32.030;115.880;2022-08-19T08:31:29;0.93;;;0.20;;
72369;SDS011;60343;-32.030;115.880;2022-08-19T08:33:57;1.50;;;0.10;;
72369;SDS011;60343;-32.030;115.880;2022-08-19T08:36:24;0.43;;;0.10;;
72369;SDS011;60343;-32.030;115.880;2022-08-19T08:38:52;3.05;;;0.30;;
72369;SDS011;60343;-32.030;115.880;2022-08-19T08:41:22;2.67;;;0.30;;
72369;SDS011;60343;-32.030;115.880;2022-08-19T08:44:03;2.95;;;0.40;;
72369;SDS011;60343;-32.030;115.880;2022-08-19T08:46:33;0.95;;;0.22;;
72369;SDS011;60343;-32.030;115.880;2022-08-19T08:49:04;3.05;;;0.40;;
72369;SDS011;60343;-32.030;115.880;2022-08-19T08:51:40;1.10;;;0.20;;
72369;SDS011;60343;-32.030;115.880;2022-08-19T08:54:11;1.48;;;0.30;;
72369;SDS011;60343;-32.030;115.880;2022-08-19T08:56:48;1.23;;;0.30;;
72369;SDS011;60343;-32.030;115.880;2022-08-19T08:59:20;2.38;;;0.40;;
72369;SDS011;60343;-32.030;115.880;2022-08-19T09:01:52;0.32;;;0.17;;
72369;SDS011;60343;-32.030;115.880;2022-08-19T09:04:20;2.13;;;0.30;;
72369;SDS011;60343;-32.030;115.880;2022-08-19T09:06:49;1.83;;;0.30;;
72369;SDS011;60343;-32.030;115.880;2022-08-19T09:09:23;2.67;;;0.20;;
72369;SDS011;60343;-32.030;115.880;2022-08-19T09:12:03;0.70;;;0.10;;
72369;SDS011;60343;-32.030;115.880;2022-08-19T09:14:37;1.08;;;0.10;;
72369;SDS011;60343;-32.030;115.880;2022-08-19T09:17:12;3.17;;;0.32;;
72369;SDS011;60343;-32.030;115.880;2022-08-19T09:19:47;3.30;;;0.20;;
72369;SDS011;60343;-32.030;115.880;2022-08-19T09:22:19;1.08;;;0.10;;
72369;SDS011;60343;-32.030;115.880;2022-08-19T09:24:47;3.13;;;0.28;;
72369;SDS011;60343;-32.030;115.880;2022-08-19T09:27:21;2.20;;;0.20;;
72369;SDS011;60343;-32.030;115.880;2022-08-19T09:29:50;1.73;;;0.15;;
72369;SDS011;60343;-32.030;115.880;2022-08-19T09:32:19;0.95;;;0.20;;
72369;SDS011;60343;-32.030;115.880;2022-08-19T09:34:47;1.48;;;0.30;;
72369;SDS011;60343;-32.030;115.880;2022-08-19T09:37:15;1.60;;;0.20;;
72369;SDS011;60343;-32.030;115.880;2022-08-19T09:39:43;1.77;;;0.30;;
72369;SDS011;60343;-32.030;115.880;2022-08-19T09:42:10;1.17;;;0.22;;
72369;SDS011;60343;-32.030;115.880;2022-08-19T09:44:44;1.48;;;0.20;;
72369;SDS011;60343;-32.030;115.880;2022-08-19T09:47:12;1.02;;;0.40;;
72369;SDS011;60343;-32.030;115.880;2022-08-19T09:49:40;1.38;;;0.50;;
72369;SDS011;60343;-32.030;115.880;2022-08-19T09:52:08;2.40;;;0.57;;
72369;SDS011;60343;-32.030;115.880;2022-08-19T09:54:37;1.33;;;0.40;;
72369;SDS011;60343;-32.030;115.880;2022-08-19T09:57:05;1.35;;;0.40;;
72369;SDS011;60343;-32.030;115.880;2022-08-19T09:59:33;2.13;;;0.30;;
72369;SDS011;60343;-32.030;115.880;2022-08-19T10:02:06;1.95;;;0.50;;
72369;SDS011;60343;-32.030;115.880;2022-08-19T10:04:34;3.70;;;0.40;;
72369;SDS011;60343;-32.030;115.880;2022-08-19T10:07:01;1.73;;;0.43;;
72369;SDS011;60343;-32.030;115.880;2022-08-19T10:09:29;0.98;;;0.30;;
72369;SDS011;60343;-32.030;115.880;2022-08-19T10:11:58;1.65;;;0.32;;
72369;SDS011;60343;-32.030;115.880;2022-08-19T10:14:26;1.25;;;0.40;;
72369;SDS011;60343;-32.030;115.880;2022-08-19T10:16:53;3.40;;;0.40;;
72369;SDS011;60343;-32.030;115.880;2022-08-19T10:19:27;2.20;;;0.50;;
72369;SDS011;60343;-32.030;115.880;2022-08-19T10:21:54;1.98;;;0.50;;
72369;SDS011;60343;-32.030;115.880;2022-08-19T10:24:22;2.75;;;0.57;;
72369;SDS011;60343;-32.030;115.880;2022-08-19T10:26:50;2.85;;;0.40;;
72369;SDS011;60343;-32.030;115.880;2022-08-19T10:29:17;4.30;;;0.40;;
72369;SDS011;60343;-32.030;115.880;2022-08-19T10:31:45;2.97;;;0.50;;
72369;SDS011;60343;-32.030;115.880;2022-08-19T10:34:13;1.20;;;0.40;;
72369;SDS011;60343;-32.030;115.880;2022-08-19T10:36:46;2.08;;;0.50;;
72369;SDS011;60343;-32.030;115.880;2022-08-19T10:39:14;1.77;;;0.60;;
72369;SDS011;60343;-32.030;115.880;2022-08-19T10:41:41;1.73;;;0.50;;
72369;SDS011;60343;-32.030;115.880;2022-08-19T10:44:10;2.30;;;0.80;;
72369;SDS011;60343;-32.030;115.880;2022-08-19T10:46:39;2.25;;;0.65;;
72369;SDS011;60343;-32.030;115.880;2022-08-19T10:49:09;2.72;;;0.90;;
72369;SDS011;60343;-32.030;115.880;2022-08-19T10:51:37;3.83;;;0.80;;
72369;SDS011;60343;-32.030;115.880;2022-08-19T10:54:11;2.03;;;0.85;;
72369;SDS011;60343;-32.030;115.880;2022-08-19T10:56:39;2.15;;;0.82;;
72369;SDS011;60343;-32.030;115.880;2022-08-19T10:59:07;2.90;;;0.90;;
72369;SDS011;60343;-32.030;115.880;2022-08-19T11:01:35;3.28;;;0.90;;
72369;SDS011;60343;-32.030;115.880;2022-08-19T11:04:03;2.35;;;0.75;;
72369;SDS011;60343;-32.030;115.880;2022-08-19T11:06:31;2.42;;;0.60;;
72369;SDS011;60343;-32.030;115.880;2022-08-19T11:08:59;2.08;;;0.70;;
72369;SDS011;60343;-32.030;115.880;2022-08-19T11:11:32;2.58;;;0.70;;
72369;SDS011;60343;-32.030;115.880;2022-08-19T11:14:00;3.53;;;0.80;;
72369;SDS011;60343;-32.030;115.880;2022-08-19T11:16:28;3.78;;;0.90;;
72369;SDS011;60343;-32.030;115.880;2022-08-19T11:18:57;4.07;;;1.17;;
72369;SDS011;60343;-32.030;115.880;2022-08-19T11:21:26;3.38;;;1.08;;
72369;SDS011;60343;-32.030;115.880;2022-08-19T11:23:56;3.00;;;0.88;;
72369;SDS011;60343;-32.030;115.880;2022-08-19T11:26:28;3.35;;;1.13;;
72369;SDS011;60343;-32.030;115.880;2022-08-19T11:29:03;3.45;;;1.00;;
72369;SDS011;60343;-32.030;115.880;2022-08-19T11:31:32;2.72;;;1.10;;
72369;SDS011;60343;-32.030;115.880;2022-08-19T11:34:02;4.03;;;1.60;;
72369;SDS011;60343;-32.030;115.880;2022-08-19T11:36:31;4.32;;;1.50;;
72369;SDS011;60343;-32.030;115.880;2022-08-19T11:38:59;4.20;;;2.20;;
72369;SDS011;60343;-32.030;115.880;2022-08-19T11:41:27;5.15;;;2.35;;
72369;SDS011;60343;-32.030;115.880;2022-08-19T11:44:01;4.72;;;2.53;;
72369;SDS011;60343;-32.030;115.880;2022-08-19T11:46:29;5.35;;;2.00;;
72369;SDS011;60343;-32.030;115.880;2022-08-19T11:48:58;3.83;;;1.60;;
72369;SDS011;60343;-32.030;115.880;2022-08-19T11:51:28;3.90;;;1.38;;
72369;SDS011;60343;-32.030;115.880;2022-08-19T11:53:57;3.40;;;1.13;;
72369;SDS011;60343;-32.030;115.880;2022-08-19T11:56:26;3.58;;;1.10;;
72369;SDS011;60343;-32.030;115.880;2022-08-19T11:59:00;2.67;;;1.10;;
72369;SDS011;60343;-32.030;115.880;2022-08-19T12:01:28;2.95;;;1.30;;
72369;SDS011;60343;-32.030;115.880;2022-08-19T12:03:56;3.40;;;1.27;;
72369;SDS011;60343;-32.030;115.880;2022-08-19T12:06:25;3.60;;;1.40;;
72369;SDS011;60343;-32.030;115.880;2022-08-19T12:08:54;4.00;;;1.33;;
72369;SDS011;60343;-32.030;115.880;2022-08-19T12:11:23;3.35;;;1.20;;
72369;SDS011;60343;-32.030;115.880;2022-08-19T12:13:51;3.80;;;1.17;;
72369;SDS011;60343;-32.030;115.880;2022-08-19T12:16:25;4.15;;;1.40;;
72369;SDS011;60343;-32.030;115.880;2022-08-19T12:18:54;3.28;;;1.13;;
72369;SDS011;60343;-32.030;115.880;2022-08-19T12:21:23;3.40;;;1.27;;
72369;SDS011;60343;-32.030;115.880;2022-08-19T12:23:52;3.83;;;1.52;;
72369;SDS011;60343;-32.030;115.880;2022-08-19T12:26:20;3.10;;;1.60;;
72369;SDS011;60343;-32.030;115.880;2022-08-19T12:28:48;3.67;;;1.45;;
72369;SDS011;60343;-32.030;115.880;2022-08-19T12:31:16;3.45;;;1.42;;
72369;SDS011;60343;-32.030;115.880;2022-08-19T12:33:49;4.15;;;1.45;;
72369;SDS011;60343;-32.030;115.880;2022-08-19T12:36:17;3.70;;;1.40;;
72369;SDS011;60343;-32.030;115.880;2022-08-19T12:38:45;4.40;;;1.55;;
72369;SDS011;60343;-32.030;115.880;2022-08-19T12:41:16;3.03;;;1.30;;
72369;SDS011;60343;-32.030;115.880;2022-08-19T12:43:45;3.78;;;1.35;;
72369;SDS011;60343;-32.030;115.880;2022-08-19T12:46:12;3.60;;;1.60;;
72369;SDS011;60343;-32.030;115.880;2022-08-19T12:48:40;4.57;;;1.40;;
72369;SDS011;60343;-32.030;115.880;2022-08-19T12:51:14;3.33;;;1.33;;
72369;SDS011;60343;-32.030;115.880;2022-08-19T12:53:43;3.60;;;1.70;;
72369;SDS011;60343;-32.030;115.880;2022-08-19T12:56:11;3.55;;;1.70;;
72369;SDS011;60343;-32.030;115.880;2022-08-19T12:58:39;5.22;;;2.10;;
72369;SDS011;60343;-32.030;115.880;2022-08-19T13:01:08;4.63;;;2.10;;
72369;SDS011;60343;-32.030;115.880;2022-08-19T13:03:38;3.22;;;1.63;;
72369;SDS011;60343;-32.030;115.880;2022-08-19T13:06:06;3.60;;;1.50;;
72369;SDS011;60343;-32.030;115.880;2022-08-19T13:08:39;3.97;;;1.48;;
72369;SDS011;60343;-32.030;115.880;2022-08-19T13:11:08;5.47;;;1.70;;
72369;SDS011;60343;-32.030;115.880;2022-08-19T13:13:38;5.15;;;1.83;;
72369;SDS011;60343;-32.030;115.880;2022-08-19T13:16:07;4.93;;;1.60;;
72369;SDS011;60343;-32.030;115.880;2022-08-19T13:18:35;6.00;;;1.70;;
72369;SDS011;60343;-32.030;115.880;2022-08-19T13:21:04;4.10;;;1.67;;
72369;SDS011;60343;-32.030;115.880;2022-08-19T13:23:38;5.10;;;2.17;;
72369;SDS011;60343;-32.030;115.880;2022-08-19T13:26:06;4.68;;;2.13;;
72369;SDS011;60343;-32.030;115.880;2022-08-19T13:28:35;4.57;;;1.80;;
72369;SDS011;60343;-32.030;115.880;2022-08-19T13:31:06;5.45;;;2.10;;
72369;SDS011;60343;-32.030;115.880;2022-08-19T13:33:47;5.20;;;1.45;;
72369;SDS011;60343;-32.030;115.880;2022-08-19T13:36:15;4.22;;;1.98;;
72369;SDS011;60343;-32.030;115.880;2022-08-19T13:38:48;4.72;;;1.50;;
72369;SDS011;60343;-32.030;115.880;2022-08-19T13:41:16;4.82;;;2.17;;
72369;SDS011;60343;-32.030;115.880;2022-08-19T13:43:44;4.15;;;1.70;;
72369;SDS011;60343;-32.030;115.880;2022-08-19T13:46:12;8.20;;;2.47;;
72369;SDS011;60343;-32.030;115.880;2022-08-19T13:48:40;4.55;;;1.90;;
72369;SDS011;60343;-32.030;115.880;2022-08-19T13:51:08;3.92;;;1.80;;
72369;SDS011;60343;-32.030;115.880;2022-08-19T13:53:36;6.30;;;2.15;;
72369;SDS011;60343;-32.030;115.880;2022-08-19T13:56:12;7.03;;;2.28;;
72369;SDS011;60343;-32.030;115.880;2022-08-19T13:58:41;5.55;;;2.00;;
72369;SDS011;60343;-32.030;115.880;2022-08-19T14:01:08;5.53;;;1.80;;
72369;SDS011;60343;-32.030;115.880;2022-08-19T14:03:36;5.57;;;1.88;;
72369;SDS011;60343;-32.030;115.880;2022-08-19T14:06:04;4.28;;;1.63;;
72369;SDS011;60343;-32.030;115.880;2022-08-19T14:08:32;5.43;;;1.75;;
72369;SDS011;60343;-32.030;115.880;2022-08-19T14:11:00;5.57;;;1.80;;
72369;SDS011;60343;-32.030;115.880;2022-08-19T14:13:33;7.07;;;2.20;;
72369;SDS011;60343;-32.030;115.880;2022-08-19T14:16:01;6.53;;;2.38;;
72369;SDS011;60343;-32.030;115.880;2022-08-19T14:18:34;4.50;;;1.90;;
72369;SDS011;60343;-32.030;115.880;2022-08-19T14:21:02;3.95;;;1.80;;
72369;SDS011;60343;-32.030;115.880;2022-08-19T14:23:30;4.45;;;1.85;;
72369;SDS011;60343;-32.030;115.880;2022-08-19T14:26:05;5.93;;;2.50;;
72369;SDS011;60343;-32.030;115.880;2022-08-19T14:28:39;5.63;;;2.67;;